sensor_id;sensor_type;location;lat;lon;timestamp;temperature;humidity
13322;DHT22;6730;46.248;6.930;2022-09-03T00:00:49;18.80;99.90
13322;DHT22;6730;46.248;6.930;2022-09-03T00:03:33;18.90;99.90
13322;DHT22;6730;46.248;6.930;2022-09-03T00:06:25;18.70;99.90
13322;DHT22;6730;46.248;6.930;2022-09-03T00:11:47;17.80;99.90
13322;DHT22;6730;46.248;6.930;2022-09-03T00:14:20;17.70;99.90
13322;DHT22;6730;46.248;6.930;2022-09-03T00:16:52;17.90;99.90
13322;DHT22;6730;46.248;6.930;2022-09-03T00:19:24;18.00;99.90
13322;DHT22;6730;46.248;6.930;2022-09-03T00:22:07;17.90;99.90
13322;DHT22;6730;46.248;6.930;2022-09-03T00:24:38;17.60;99.90
13322;DHT22;6730;46.248;6.930;2022-09-03T00:27:16;17.40;99.90
13322;DHT22;6730;46.248;6.930;2022-09-03T00:32:47;17.40;99.90
13322;DHT22;6730;46.248;6.930;2022-09-03T00:35:17;17.20;99.90
13322;DHT22;6730;46.248;6.930;2022-09-03T00:37:45;17.20;99.90
13322;DHT22;6730;46.248;6.930;2022-09-03T00:49:00;17.20;99.90
13322;DHT22;6730;46.248;6.930;2022-09-03T00:51:50;17.40;99.90
13322;DHT22;6730;46.248;6.930;2022-09-03T00:59:42;17.90;99.90
13322;DHT22;6730;46.248;6.930;2022-09-03T01:02:46;17.80;99.90
13322;DHT22;6730;46.248;6.930;2022-09-03T01:10:33;17.90;99.90
13322;DHT22;6730;46.248;6.930;2022-09-03T01:13:22;18.20;99.90
13322;DHT22;6730;46.248;6.930;2022-09-03T01:21:35;18.30;99.90
13322;DHT22;6730;46.248;6.930;2022-09-03T01:29:38;17.80;99.90
13322;DHT22;6730;46.248;6.930;2022-09-03T01:32:26;17.90;99.90
13322;DHT22;6730;46.248;6.930;2022-09-03T01:37:52;18.00;99.90
13322;DHT22;6730;46.248;6.930;2022-09-03T01:46:06;17.80;99.90
13322;DHT22;6730;46.248;6.930;2022-09-03T01:48:55;18.00;99.90
13322;DHT22;6730;46.248;6.930;2022-09-03T01:51:25;18.20;99.90
13322;DHT22;6730;46.248;6.930;2022-09-03T01:59:39;18.40;99.90
13322;DHT22;6730;46.248;6.930;2022-09-03T02:02:15;18.30;99.90
13322;DHT22;6730;46.248;6.930;2022-09-03T02:05:14;18.20;99.90
13322;DHT22;6730;46.248;6.930;2022-09-03T02:07:50;18.20;99.90
13322;DHT22;6730;46.248;6.930;2022-09-03T02:10:23;18.40;99.90
13322;DHT22;6730;46.248;6.930;2022-09-03T02:12:56;18.20;99.90
13322;DHT22;6730;46.248;6.930;2022-09-03T02:15:24;18.10;99.90
13322;DHT22;6730;46.248;6.930;2022-09-03T02:17:53;17.60;99.90
13322;DHT22;6730;46.248;6.930;2022-09-03T02:20:23;17.70;99.90
13322;DHT22;6730;46.248;6.930;2022-09-03T02:22:51;17.70;99.90
13322;DHT22;6730;46.248;6.930;2022-09-03T02:25:21;18.10;99.90
13322;DHT22;6730;46.248;6.930;2022-09-03T02:27:48;18.20;99.90
13322;DHT22;6730;46.248;6.930;2022-09-03T02:30:15;18.20;99.90
13322;DHT22;6730;46.248;6.930;2022-09-03T02:32:43;18.20;99.90
13322;DHT22;6730;46.248;6.930;2022-09-03T02:35:09;17.90;99.90
13322;DHT22;6730;46.248;6.930;2022-09-03T02:37:34;17.90;99.90
13322;DHT22;6730;46.248;6.930;2022-09-03T02:40:00;18.00;99.90
13322;DHT22;6730;46.248;6.930;2022-09-03T02:42:29;17.90;99.90
13322;DHT22;6730;46.248;6.930;2022-09-03T02:47:59;17.70;99.90
13322;DHT22;6730;46.248;6.930;2022-09-03T02:50:25;17.90;99.90
13322;DHT22;6730;46.248;6.930;2022-09-03T02:52:51;17.60;99.90
13322;DHT22;6730;46.248;6.930;2022-09-03T02:55:18;17.50;99.90
13322;DHT22;6730;46.248;6.930;2022-09-03T02:57:45;17.50;99.90
13322;DHT22;6730;46.248;6.930;2022-09-03T03:00:12;17.50;99.90
13322;DHT22;6730;46.248;6.930;2022-09-03T03:02:38;17.50;99.90
13322;DHT22;6730;46.248;6.930;2022-09-03T03:05:04;17.70;99.90
13322;DHT22;6730;46.248;6.930;2022-09-03T03:07:36;17.60;99.90
13322;DHT22;6730;46.248;6.930;2022-09-03T03:10:03;17.50;99.90
13322;DHT22;6730;46.248;6.930;2022-09-03T03:12:29;17.60;99.90
13322;DHT22;6730;46.248;6.930;2022-09-03T03:14:55;17.30;99.90
13322;DHT22;6730;46.248;6.930;2022-09-03T03:17:20;17.00;99.90
13322;DHT22;6730;46.248;6.930;2022-09-03T03:19:46;16.90;99.90
13322;DHT22;6730;46.248;6.930;2022-09-03T03:22:12;16.30;99.90
13322;DHT22;6730;46.248;6.930;2022-09-03T03:24:37;16.00;99.90
13322;DHT22;6730;46.248;6.930;2022-09-03T03:27:03;15.90;99.90
13322;DHT22;6730;46.248;6.930;2022-09-03T03:29:31;16.30;99.90
13322;DHT22;6730;46.248;6.930;2022-09-03T03:31:57;16.80;99.90
13322;DHT22;6730;46.248;6.930;2022-09-03T03:34:23;17.20;99.90
13322;DHT22;6730;46.248;6.930;2022-09-03T03:36:48;17.20;99.90
13322;DHT22;6730;46.248;6.930;2022-09-03T03:39:14;17.30;99.90
13322;DHT22;6730;46.248;6.930;2022-09-03T03:41:39;17.40;99.90
13322;DHT22;6730;46.248;6.930;2022-09-03T03:44:06;17.40;99.90
13322;DHT22;6730;46.248;6.930;2022-09-03T03:46:35;17.60;99.90
13322;DHT22;6730;46.248;6.930;2022-09-03T03:49:01;17.70;99.90
13322;DHT22;6730;46.248;6.930;2022-09-03T03:51:28;17.80;99.90
13322;DHT22;6730;46.248;6.930;2022-09-03T03:53:57;17.10;99.90
13322;DHT22;6730;46.248;6.930;2022-09-03T03:56:24;17.30;99.90
13322;DHT22;6730;46.248;6.930;2022-09-03T03:58:50;17.50;99.90
13322;DHT22;6730;46.248;6.930;2022-09-03T04:01:22;17.30;99.90
13322;DHT22;6730;46.248;6.930;2022-09-03T04:03:48;17.60;99.90
13322;DHT22;6730;46.248;6.930;2022-09-03T04:06:17;17.80;99.90
13322;DHT22;6730;46.248;6.930;2022-09-03T04:08:44;17.70;99.90
13322;DHT22;6730;46.248;6.930;2022-09-03T04:11:13;18.00;99.90
13322;DHT22;6730;46.248;6.930;2022-09-03T04:13:41;18.20;99.90
13322;DHT22;6730;46.248;6.930;2022-09-03T04:16:09;18.20;99.90
13322;DHT22;6730;46.248;6.930;2022-09-03T04:18:36;17.90;99.90
13322;DHT22;6730;46.248;6.930;2022-09-03T04:21:05;17.40;99.90
13322;DHT22;6730;46.248;6.930;2022-09-03T04:23:32;16.90;99.90
13322;DHT22;6730;46.248;6.930;2022-09-03T04:25:58;16.60;99.90
13322;DHT22;6730;46.248;6.930;2022-09-03T04:28:24;16.90;99.90
13322;DHT22;6730;46.248;6.930;2022-09-03T04:30:50;17.10;99.90
13322;DHT22;6730;46.248;6.930;2022-09-03T04:33:16;17.10;99.90
13322;DHT22;6730;46.248;6.930;2022-09-03T04:35:41;17.10;99.90
13322;DHT22;6730;46.248;6.930;2022-09-03T04:38:08;17.20;99.90
13322;DHT22;6730;46.248;6.930;2022-09-03T04:40:33;17.10;99.90
13322;DHT22;6730;46.248;6.930;2022-09-03T04:42:59;17.00;99.90
13322;DHT22;6730;46.248;6.930;2022-09-03T04:45:25;16.80;99.90
13322;DHT22;6730;46.248;6.930;2022-09-03T04:48:00;16.70;99.90
13322;DHT22;6730;46.248;6.930;2022-09-03T04:50:27;16.80;99.90
13322;DHT22;6730;46.248;6.930;2022-09-03T04:52:54;16.90;99.90
13322;DHT22;6730;46.248;6.930;2022-09-03T04:55:24;17.00;99.90
13322;DHT22;6730;46.248;6.930;2022-09-03T04:57:50;17.20;99.90
13322;DHT22;6730;46.248;6.930;2022-09-03T05:00:16;17.30;99.90
13322;DHT22;6730;46.248;6.930;2022-09-03T05:02:43;17.30;99.90
13322;DHT22;6730;46.248;6.930;2022-09-03T05:05:11;17.10;99.90
13322;DHT22;6730;46.248;6.930;2022-09-03T05:07:37;17.30;99.90
13322;DHT22;6730;46.248;6.930;2022-09-03T05:10:08;17.30;99.90
13322;DHT22;6730;46.248;6.930;2022-09-03T05:12:37;17.10;99.90
13322;DHT22;6730;46.248;6.930;2022-09-03T05:15:05;17.00;99.90
13322;DHT22;6730;46.248;6.930;2022-09-03T05:17:30;17.00;99.90
13322;DHT22;6730;46.248;6.930;2022-09-03T05:19:56;17.10;99.90
13322;DHT22;6730;46.248;6.930;2022-09-03T05:22:22;17.20;99.90
13322;DHT22;6730;46.248;6.930;2022-09-03T05:24:48;17.30;99.90
13322;DHT22;6730;46.248;6.930;2022-09-03T05:27:15;17.50;99.90
13322;DHT22;6730;46.248;6.930;2022-09-03T05:29:46;17.20;99.90
13322;DHT22;6730;46.248;6.930;2022-09-03T05:32:12;17.10;99.90
13322;DHT22;6730;46.248;6.930;2022-09-03T05:34:38;17.10;99.90
13322;DHT22;6730;46.248;6.930;2022-09-03T05:37:04;17.10;99.90
13322;DHT22;6730;46.248;6.930;2022-09-03T05:39:29;17.20;99.90
13322;DHT22;6730;46.248;6.930;2022-09-03T05:41:55;17.00;99.90
13322;DHT22;6730;46.248;6.930;2022-09-03T05:44:21;17.00;99.90
13322;DHT22;6730;46.248;6.930;2022-09-03T05:46:50;16.90;99.90
13322;DHT22;6730;46.248;6.930;2022-09-03T05:49:16;17.20;99.90
13322;DHT22;6730;46.248;6.930;2022-09-03T05:51:42;17.20;99.90
13322;DHT22;6730;46.248;6.930;2022-09-03T05:54:09;17.20;99.90
13322;DHT22;6730;46.248;6.930;2022-09-03T05:56:37;16.90;99.90
13322;DHT22;6730;46.248;6.930;2022-09-03T05:59:06;16.70;99.90
13322;DHT22;6730;46.248;6.930;2022-09-03T06:01:35;16.50;99.90
13322;DHT22;6730;46.248;6.930;2022-09-03T06:04:06;16.50;99.90
13322;DHT22;6730;46.248;6.930;2022-09-03T06:06:34;16.30;99.90
13322;DHT22;6730;46.248;6.930;2022-09-03T06:09:06;16.10;99.90
13322;DHT22;6730;46.248;6.930;2022-09-03T06:11:33;16.10;99.90
13322;DHT22;6730;46.248;6.930;2022-09-03T06:14:01;16.20;99.90
13322;DHT22;6730;46.248;6.930;2022-09-03T06:16:30;16.40;99.90
13322;DHT22;6730;46.248;6.930;2022-09-03T06:18:56;16.60;99.90
13322;DHT22;6730;46.248;6.930;2022-09-03T06:21:22;16.90;99.90
13322;DHT22;6730;46.248;6.930;2022-09-03T06:23:49;17.20;99.90
13322;DHT22;6730;46.248;6.930;2022-09-03T06:26:18;17.40;99.90
13322;DHT22;6730;46.248;6.930;2022-09-03T06:28:45;17.40;99.90
13322;DHT22;6730;46.248;6.930;2022-09-03T06:31:15;17.10;99.90
13322;DHT22;6730;46.248;6.930;2022-09-03T06:33:41;17.20;99.90
13322;DHT22;6730;46.248;6.930;2022-09-03T06:36:09;17.30;99.90
13322;DHT22;6730;46.248;6.930;2022-09-03T06:38:36;17.30;99.90
13322;DHT22;6730;46.248;6.930;2022-09-03T06:41:04;17.30;99.90
13322;DHT22;6730;46.248;6.930;2022-09-03T06:43:33;17.40;99.90
13322;DHT22;6730;46.248;6.930;2022-09-03T06:46:05;18.00;99.90
13322;DHT22;6730;46.248;6.930;2022-09-03T06:48:33;18.50;99.90
13322;DHT22;6730;46.248;6.930;2022-09-03T06:51:02;18.40;99.90
13322;DHT22;6730;46.248;6.930;2022-09-03T06:53:30;18.10;99.90
13322;DHT22;6730;46.248;6.930;2022-09-03T06:55:58;18.00;99.90
13322;DHT22;6730;46.248;6.930;2022-09-03T06:58:27;18.40;99.90
13322;DHT22;6730;46.248;6.930;2022-09-03T07:00:53;18.90;99.90
13322;DHT22;6730;46.248;6.930;2022-09-03T07:03:25;18.80;99.90
13322;DHT22;6730;46.248;6.930;2022-09-03T07:05:51;18.70;99.90
13322;DHT22;6730;46.248;6.930;2022-09-03T07:08:16;18.50;99.90
13322;DHT22;6730;46.248;6.930;2022-09-03T07:10:45;18.50;99.90
13322;DHT22;6730;46.248;6.930;2022-09-03T07:13:12;18.80;99.90
13322;DHT22;6730;46.248;6.930;2022-09-03T07:15:37;18.90;99.90
13322;DHT22;6730;46.248;6.930;2022-09-03T07:18:05;18.70;99.90
13322;DHT22;6730;46.248;6.930;2022-09-03T07:20:31;18.60;99.90
13322;DHT22;6730;46.248;6.930;2022-09-03T07:22:56;18.60;99.90
13322;DHT22;6730;46.248;6.930;2022-09-03T07:25:24;18.30;99.90
13322;DHT22;6730;46.248;6.930;2022-09-03T07:27:50;17.40;99.90
13322;DHT22;6730;46.248;6.930;2022-09-03T07:30:16;17.10;99.90
13322;DHT22;6730;46.248;6.930;2022-09-03T07:32:45;17.10;99.90
13322;DHT22;6730;46.248;6.930;2022-09-03T07:35:14;16.70;99.90
13322;DHT22;6730;46.248;6.930;2022-09-03T07:37:40;16.50;99.90
13322;DHT22;6730;46.248;6.930;2022-09-03T07:40:10;16.50;99.90
13322;DHT22;6730;46.248;6.930;2022-09-03T07:42:37;16.30;99.90
13322;DHT22;6730;46.248;6.930;2022-09-03T07:45:06;16.20;99.90
13322;DHT22;6730;46.248;6.930;2022-09-03T07:47:35;16.20;99.90
13322;DHT22;6730;46.248;6.930;2022-09-03T07:50:02;16.20;99.90
13322;DHT22;6730;46.248;6.930;2022-09-03T07:52:28;16.40;99.90
13322;DHT22;6730;46.248;6.930;2022-09-03T07:54:54;16.50;99.90
13322;DHT22;6730;46.248;6.930;2022-09-03T07:57:20;16.70;99.90
13322;DHT22;6730;46.248;6.930;2022-09-03T07:59:45;16.60;99.90
13322;DHT22;6730;46.248;6.930;2022-09-03T08:02:12;16.50;99.90
13322;DHT22;6730;46.248;6.930;2022-09-03T08:04:38;16.50;99.90
13322;DHT22;6730;46.248;6.930;2022-09-03T08:07:05;16.60;99.90
13322;DHT22;6730;46.248;6.930;2022-09-03T08:09:31;16.60;99.90
13322;DHT22;6730;46.248;6.930;2022-09-03T08:11:57;16.80;99.90
13322;DHT22;6730;46.248;6.930;2022-09-03T08:14:23;17.20;99.90
13322;DHT22;6730;46.248;6.930;2022-09-03T08:16:49;18.00;99.90
13322;DHT22;6730;46.248;6.930;2022-09-03T08:19:16;18.20;99.90
13322;DHT22;6730;46.248;6.930;2022-09-03T08:21:42;17.80;99.90
13322;DHT22;6730;46.248;6.930;2022-09-03T08:24:10;18.00;99.90
13322;DHT22;6730;46.248;6.930;2022-09-03T08:26:38;19.10;99.90
13322;DHT22;6730;46.248;6.930;2022-09-03T08:29:05;19.60;99.90
13322;DHT22;6730;46.248;6.930;2022-09-03T08:31:32;20.10;99.90
13322;DHT22;6730;46.248;6.930;2022-09-03T08:34:00;20.70;99.90
13322;DHT22;6730;46.248;6.930;2022-09-03T08:36:32;21.10;99.90
13322;DHT22;6730;46.248;6.930;2022-09-03T08:39:00;20.70;99.90
13322;DHT22;6730;46.248;6.930;2022-09-03T08:52:51;20.50;99.90
13322;DHT22;6730;46.248;6.930;2022-09-03T08:57:56;19.50;99.90
13322;DHT22;6730;46.248;6.930;2022-09-03T09:00:34;19.10;99.90
13322;DHT22;6730;46.248;6.930;2022-09-03T09:03:25;18.90;99.90
13322;DHT22;6730;46.248;6.930;2022-09-03T09:06:22;18.70;99.90
13322;DHT22;6730;46.248;6.930;2022-09-03T09:12:17;20.60;99.90
13322;DHT22;6730;46.248;6.930;2022-09-03T09:17:01;21.40;99.90
13322;DHT22;6730;46.248;6.930;2022-09-03T09:22:36;21.80;99.90
13322;DHT22;6730;46.248;6.930;2022-09-03T09:25:09;21.30;99.90
13322;DHT22;6730;46.248;6.930;2022-09-03T09:27:46;22.30;99.90
13322;DHT22;6730;46.248;6.930;2022-09-03T09:30:14;22.60;99.90
13322;DHT22;6730;46.248;6.930;2022-09-03T09:32:41;23.30;99.90
13322;DHT22;6730;46.248;6.930;2022-09-03T09:35:10;23.70;99.90
13322;DHT22;6730;46.248;6.930;2022-09-03T09:37:49;24.60;99.90
13322;DHT22;6730;46.248;6.930;2022-09-03T09:40:28;24.10;99.90
13322;DHT22;6730;46.248;6.930;2022-09-03T09:43:23;22.60;99.90
13322;DHT22;6730;46.248;6.930;2022-09-03T09:45:51;22.70;99.90
13322;DHT22;6730;46.248;6.930;2022-09-03T09:48:31;22.40;99.90
13322;DHT22;6730;46.248;6.930;2022-09-03T09:51:05;22.20;99.90
13322;DHT22;6730;46.248;6.930;2022-09-03T09:53:31;22.40;99.90
13322;DHT22;6730;46.248;6.930;2022-09-03T09:55:57;21.20;99.90
13322;DHT22;6730;46.248;6.930;2022-09-03T09:58:25;20.50;99.90
13322;DHT22;6730;46.248;6.930;2022-09-03T10:03:32;20.60;99.90
13322;DHT22;6730;46.248;6.930;2022-09-03T10:06:08;20.80;99.90
13322;DHT22;6730;46.248;6.930;2022-09-03T10:09:11;21.10;99.90
13322;DHT22;6730;46.248;6.930;2022-09-03T10:11:39;22.30;99.90
13322;DHT22;6730;46.248;6.930;2022-09-03T10:14:12;22.70;99.90
13322;DHT22;6730;46.248;6.930;2022-09-03T10:16:42;22.70;99.90
13322;DHT22;6730;46.248;6.930;2022-09-03T10:19:19;21.70;99.90
13322;DHT22;6730;46.248;6.930;2022-09-03T10:21:57;21.60;99.90
13322;DHT22;6730;46.248;6.930;2022-09-03T10:24:56;21.30;99.90
13322;DHT22;6730;46.248;6.930;2022-09-03T10:27:23;21.70;99.90
13322;DHT22;6730;46.248;6.930;2022-09-03T10:29:50;22.00;99.90
13322;DHT22;6730;46.248;6.930;2022-09-03T10:32:52;21.90;99.90
13322;DHT22;6730;46.248;6.930;2022-09-03T10:35:33;22.20;99.90
13322;DHT22;6730;46.248;6.930;2022-09-03T10:38:44;21.80;99.90
13322;DHT22;6730;46.248;6.930;2022-09-03T10:43:56;21.70;99.90
13322;DHT22;6730;46.248;6.930;2022-09-03T10:46:29;21.20;99.90
13322;DHT22;6730;46.248;6.930;2022-09-03T10:49:23;20.80;99.90
13322;DHT22;6730;46.248;6.930;2022-09-03T10:52:27;20.60;99.90
13322;DHT22;6730;46.248;6.930;2022-09-03T10:57:44;20.20;99.90
13322;DHT22;6730;46.248;6.930;2022-09-03T11:00:12;20.00;99.90
13322;DHT22;6730;46.248;6.930;2022-09-03T11:05:13;20.40;99.90
13322;DHT22;6730;46.248;6.930;2022-09-03T11:08:11;20.50;99.90
13322;DHT22;6730;46.248;6.930;2022-09-03T11:10:45;20.60;99.90
13322;DHT22;6730;46.248;6.930;2022-09-03T11:13:25;20.70;99.90
13322;DHT22;6730;46.248;6.930;2022-09-03T11:16:00;20.60;99.90
13322;DHT22;6730;46.248;6.930;2022-09-03T11:18:56;20.80;99.90
13322;DHT22;6730;46.248;6.930;2022-09-03T11:21:27;20.90;99.90
13322;DHT22;6730;46.248;6.930;2022-09-03T11:26:30;21.20;99.90
13322;DHT22;6730;46.248;6.930;2022-09-03T11:29:11;21.20;99.90
13322;DHT22;6730;46.248;6.930;2022-09-03T11:32:00;21.30;99.90
13322;DHT22;6730;46.248;6.930;2022-09-03T11:34:43;21.50;99.90
13322;DHT22;6730;46.248;6.930;2022-09-03T11:37:22;21.70;99.90
13322;DHT22;6730;46.248;6.930;2022-09-03T11:40:15;21.80;99.90
13322;DHT22;6730;46.248;6.930;2022-09-03T11:42:43;21.90;99.90
13322;DHT22;6730;46.248;6.930;2022-09-03T11:47:54;21.80;99.90
13322;DHT22;6730;46.248;6.930;2022-09-03T11:50:32;21.80;99.90
13322;DHT22;6730;46.248;6.930;2022-09-03T11:53:25;22.10;99.90
13322;DHT22;6730;46.248;6.930;2022-09-03T11:58:39;22.80;99.90
13322;DHT22;6730;46.248;6.930;2022-09-03T12:01:12;22.00;99.90
13322;DHT22;6730;46.248;6.930;2022-09-03T12:03:53;21.70;99.90
13322;DHT22;6730;46.248;6.930;2022-09-03T12:12:13;21.10;99.90
13322;DHT22;6730;46.248;6.930;2022-09-03T12:20:42;21.60;99.90
13322;DHT22;6730;46.248;6.930;2022-09-03T12:23:13;21.70;99.90
13322;DHT22;6730;46.248;6.930;2022-09-03T12:25:44;22.00;99.90
13322;DHT22;6730;46.248;6.930;2022-09-03T12:28:15;22.20;99.90
13322;DHT22;6730;46.248;6.930;2022-09-03T12:30:42;21.50;99.90
13322;DHT22;6730;46.248;6.930;2022-09-03T12:33:12;21.10;99.90
13322;DHT22;6730;46.248;6.930;2022-09-03T12:35:41;21.30;99.90
13322;DHT22;6730;46.248;6.930;2022-09-03T12:38:07;21.30;99.90
13322;DHT22;6730;46.248;6.930;2022-09-03T12:40:32;21.10;99.90
13322;DHT22;6730;46.248;6.930;2022-09-03T12:43:15;20.70;99.90
13322;DHT22;6730;46.248;6.930;2022-09-03T12:45:45;20.30;99.90
13322;DHT22;6730;46.248;6.930;2022-09-03T12:48:15;20.40;99.90
13322;DHT22;6730;46.248;6.930;2022-09-03T12:50:42;20.50;99.90
13322;DHT22;6730;46.248;6.930;2022-09-03T12:53:13;20.50;99.90
13322;DHT22;6730;46.248;6.930;2022-09-03T12:55:51;20.80;99.90
13322;DHT22;6730;46.248;6.930;2022-09-03T12:58:22;20.90;99.90
13322;DHT22;6730;46.248;6.930;2022-09-03T13:01:12;21.30;99.90
13322;DHT22;6730;46.248;6.930;2022-09-03T13:06:14;20.90;99.90
13322;DHT22;6730;46.248;6.930;2022-09-03T13:11:15;21.10;99.90
13322;DHT22;6730;46.248;6.930;2022-09-03T13:37:48;20.30;99.90
13322;DHT22;6730;46.248;6.930;2022-09-03T13:45:57;20.60;99.90
13322;DHT22;6730;46.248;6.930;2022-09-03T13:48:35;20.40;99.90
13322;DHT22;6730;46.248;6.930;2022-09-03T13:51:30;20.50;99.90
13322;DHT22;6730;46.248;6.930;2022-09-03T13:56:53;20.60;99.90
13322;DHT22;6730;46.248;6.930;2022-09-03T14:04:50;21.00;99.90
13322;DHT22;6730;46.248;6.930;2022-09-03T14:07:24;20.90;99.90
13322;DHT22;6730;46.248;6.930;2022-09-03T14:10:03;20.90;99.90
13322;DHT22;6730;46.248;6.930;2022-09-03T14:12:43;20.90;99.90
13322;DHT22;6730;46.248;6.930;2022-09-03T14:15:29;21.10;99.90
13322;DHT22;6730;46.248;6.930;2022-09-03T14:20:43;21.00;99.90
13322;DHT22;6730;46.248;6.930;2022-09-03T14:25:55;20.90;99.90
13322;DHT22;6730;46.248;6.930;2022-09-03T14:28:29;20.80;99.90
13322;DHT22;6730;46.248;6.930;2022-09-03T14:36:54;20.60;99.90
13322;DHT22;6730;46.248;6.930;2022-09-03T14:39:27;20.60;99.90
13322;DHT22;6730;46.248;6.930;2022-09-03T14:42:07;20.70;99.90
13322;DHT22;6730;46.248;6.930;2022-09-03T14:48:19;21.20;99.90
13322;DHT22;6730;46.248;6.930;2022-09-03T15:05:35;20.30;99.90
13322;DHT22;6730;46.248;6.930;2022-09-03T15:10:35;20.30;99.90
13322;DHT22;6730;46.248;6.930;2022-09-03T15:13:30;20.30;99.90
13322;DHT22;6730;46.248;6.930;2022-09-03T15:30:09;20.50;99.90
13322;DHT22;6730;46.248;6.930;2022-09-03T15:38:55;20.40;99.90
13322;DHT22;6730;46.248;6.930;2022-09-03T15:44:02;20.90;99.90
13322;DHT22;6730;46.248;6.930;2022-09-03T15:49:07;21.40;99.90
13322;DHT22;6730;46.248;6.930;2022-09-03T15:52:14;21.50;99.90
13322;DHT22;6730;46.248;6.930;2022-09-03T15:54:47;21.30;99.90
13322;DHT22;6730;46.248;6.930;2022-09-03T16:00:11;21.00;99.90
13322;DHT22;6730;46.248;6.930;2022-09-03T16:08:01;20.50;99.90
13322;DHT22;6730;46.248;6.930;2022-09-03T16:13:42;20.10;99.90
13322;DHT22;6730;46.248;6.930;2022-09-03T16:16:16;20.40;99.90
13322;DHT22;6730;46.248;6.930;2022-09-03T16:18:58;20.80;99.90
13322;DHT22;6730;46.248;6.930;2022-09-03T16:24:15;21.60;99.90
13322;DHT22;6730;46.248;6.930;2022-09-03T16:29:14;21.50;99.90
13322;DHT22;6730;46.248;6.930;2022-09-03T16:42:17;20.10;99.90
13322;DHT22;6730;46.248;6.930;2022-09-03T17:06:41;21.40;99.90
13322;DHT22;6730;46.248;6.930;2022-09-03T17:17:21;21.30;99.90
13322;DHT22;6730;46.248;6.930;2022-09-03T17:19:58;21.30;99.90
13322;DHT22;6730;46.248;6.930;2022-09-03T17:22:49;21.10;99.90
13322;DHT22;6730;46.248;6.930;2022-09-03T17:25:36;21.30;99.90
13322;DHT22;6730;46.248;6.930;2022-09-03T17:34:04;21.30;99.90
13322;DHT22;6730;46.248;6.930;2022-09-03T17:36:37;21.60;99.90
13322;DHT22;6730;46.248;6.930;2022-09-03T17:39:21;21.50;99.90
13322;DHT22;6730;46.248;6.930;2022-09-03T17:42:15;21.50;99.90
13322;DHT22;6730;46.248;6.930;2022-09-03T17:44:57;21.40;99.90
13322;DHT22;6730;46.248;6.930;2022-09-03T17:52:59;21.20;99.90
13322;DHT22;6730;46.248;6.930;2022-09-03T17:55:36;20.70;99.90
13322;DHT22;6730;46.248;6.930;2022-09-03T17:58:24;20.70;99.90
13322;DHT22;6730;46.248;6.930;2022-09-03T18:01:13;20.70;99.90
13322;DHT22;6730;46.248;6.930;2022-09-03T18:19:45;20.00;99.90
13322;DHT22;6730;46.248;6.930;2022-09-03T18:25:41;20.50;99.90
13322;DHT22;6730;46.248;6.930;2022-09-03T18:28:36;20.70;99.90
13322;DHT22;6730;46.248;6.930;2022-09-03T18:31:22;20.60;99.90
13322;DHT22;6730;46.248;6.930;2022-09-03T18:34:07;20.80;99.90
13322;DHT22;6730;46.248;6.930;2022-09-03T18:36:52;20.50;99.90
13322;DHT22;6730;46.248;6.930;2022-09-03T18:39:39;20.40;99.90
13322;DHT22;6730;46.248;6.930;2022-09-03T18:45:54;20.20;99.90
13322;DHT22;6730;46.248;6.930;2022-09-03T18:48:56;20.40;99.90
13322;DHT22;6730;46.248;6.930;2022-09-03T18:51:47;20.70;99.90
13322;DHT22;6730;46.248;6.930;2022-09-03T18:58:24;20.50;99.90
13322;DHT22;6730;46.248;6.930;2022-09-03T19:01:37;20.70;99.90
13322;DHT22;6730;46.248;6.930;2022-09-03T19:10:44;20.10;99.90
13322;DHT22;6730;46.248;6.930;2022-09-03T19:13:36;20.20;99.90
13322;DHT22;6730;46.248;6.930;2022-09-03T19:22:09;20.60;99.90
13322;DHT22;6730;46.248;6.930;2022-09-03T19:25:04;19.90;99.90
13322;DHT22;6730;46.248;6.930;2022-09-03T19:53:00;19.40;99.90
13322;DHT22;6730;46.248;6.930;2022-09-03T19:55:52;19.30;99.90
13322;DHT22;6730;46.248;6.930;2022-09-03T19:58:40;19.40;99.90
13322;DHT22;6730;46.248;6.930;2022-09-03T20:01:32;19.20;99.90
13322;DHT22;6730;46.248;6.930;2022-09-03T20:04:18;19.30;99.90
13322;DHT22;6730;46.248;6.930;2022-09-03T20:07:07;19.50;99.90
13322;DHT22;6730;46.248;6.930;2022-09-03T20:09:55;19.70;99.90
13322;DHT22;6730;46.248;6.930;2022-09-03T20:12:45;19.70;99.90
13322;DHT22;6730;46.248;6.930;2022-09-03T20:15:15;19.40;99.90
13322;DHT22;6730;46.248;6.930;2022-09-03T20:18:06;19.30;99.90
13322;DHT22;6730;46.248;6.930;2022-09-03T20:21:00;19.30;99.90
13322;DHT22;6730;46.248;6.930;2022-09-03T20:23:52;19.40;99.90
13322;DHT22;6730;46.248;6.930;2022-09-03T20:26:31;19.20;99.90
13322;DHT22;6730;46.248;6.930;2022-09-03T20:29:19;19.50;99.90
13322;DHT22;6730;46.248;6.930;2022-09-03T20:32:13;19.30;99.90
13322;DHT22;6730;46.248;6.930;2022-09-03T20:42:36;19.50;99.90
13322;DHT22;6730;46.248;6.930;2022-09-03T20:48:22;19.20;99.90
13322;DHT22;6730;46.248;6.930;2022-09-03T20:51:02;19.00;99.90
13322;DHT22;6730;46.248;6.930;2022-09-03T20:56:30;19.20;99.90
13322;DHT22;6730;46.248;6.930;2022-09-03T21:05:00;19.30;99.90
13322;DHT22;6730;46.248;6.930;2022-09-03T21:15:43;19.10;99.90
13322;DHT22;6730;46.248;6.930;2022-09-03T21:21:25;19.10;99.90
13322;DHT22;6730;46.248;6.930;2022-09-03T21:24:29;19.20;99.90
13322;DHT22;6730;46.248;6.930;2022-09-03T21:27:04;19.00;99.90
13322;DHT22;6730;46.248;6.930;2022-09-03T21:29:37;18.80;99.90
13322;DHT22;6730;46.248;6.930;2022-09-03T21:32:17;18.90;99.90
13322;DHT22;6730;46.248;6.930;2022-09-03T21:37:49;19.30;99.90
13322;DHT22;6730;46.248;6.930;2022-09-03T21:40:18;19.30;99.90
13322;DHT22;6730;46.248;6.930;2022-09-03T21:42:56;19.10;99.90
13322;DHT22;6730;46.248;6.930;2022-09-03T21:50:59;18.90;99.90
13322;DHT22;6730;46.248;6.930;2022-09-03T21:53:43;18.80;99.90
13322;DHT22;6730;46.248;6.930;2022-09-03T22:02:02;19.00;99.90
13322;DHT22;6730;46.248;6.930;2022-09-03T22:04:28;18.70;99.90
13322;DHT22;6730;46.248;6.930;2022-09-03T22:10:10;18.50;99.90
13322;DHT22;6730;46.248;6.930;2022-09-03T22:15:27;18.80;99.90
13322;DHT22;6730;46.248;6.930;2022-09-03T22:18:00;18.90;99.90
13322;DHT22;6730;46.248;6.930;2022-09-03T22:20:30;19.00;99.90
13322;DHT22;6730;46.248;6.930;2022-09-03T22:23:00;19.00;99.90
13322;DHT22;6730;46.248;6.930;2022-09-03T22:25:41;18.90;99.90
13322;DHT22;6730;46.248;6.930;2022-09-03T22:31:09;18.80;99.90
13322;DHT22;6730;46.248;6.930;2022-09-03T22:56:15;18.90;99.90
13322;DHT22;6730;46.248;6.930;2022-09-03T23:01:47;18.80;99.90
13322;DHT22;6730;46.248;6.930;2022-09-03T23:06:54;18.70;99.90
13322;DHT22;6730;46.248;6.930;2022-09-03T23:09:24;18.60;99.90
13322;DHT22;6730;46.248;6.930;2022-09-03T23:11:57;18.60;99.90
13322;DHT22;6730;46.248;6.930;2022-09-03T23:14:28;18.80;99.90
13322;DHT22;6730;46.248;6.930;2022-09-03T23:17:05;18.90;99.90
13322;DHT22;6730;46.248;6.930;2022-09-03T23:19:41;18.70;99.90
13322;DHT22;6730;46.248;6.930;2022-09-03T23:24:43;18.80;99.90
13322;DHT22;6730;46.248;6.930;2022-09-03T23:27:21;18.80;99.90
13322;DHT22;6730;46.248;6.930;2022-09-03T23:29:53;18.70;99.90